sensor_id;sensor_type;location;lat;lon;timestamp;pressure;altitude;pressure_sealevel;temperature;humidity
69689;BME280;56932;38.402;-96.176;2023-04-10T00:00:07;98084.95;;;23.41;21.19
69689;BME280;56932;38.402;-96.176;2023-04-10T00:02:32;98087.73;;;23.36;21.35
69689;BME280;56932;38.402;-96.176;2023-04-10T00:04:57;98091.08;;;23.88;20.38
69689;BME280;56932;38.402;-96.176;2023-04-10T00:07:22;98090.05;;;23.90;20.53
69689;BME280;56932;38.402;-96.176;2023-04-10T00:09:48;98088.87;;;23.69;20.63
69689;BME280;56932;38.402;-96.176;2023-04-10T00:12:13;98087.13;;;23.26;20.89
69689;BME280;56932;38.402;-96.176;2023-04-10T00:14:38;98084.62;;;23.13;21.16
69689;BME280;56932;38.402;-96.176;2023-04-10T00:17:03;98080.57;;;23.80;20.34
69689;BME280;56932;38.402;-96.176;2023-04-10T00:19:29;98080.58;;;23.52;20.90
69689;BME280;56932;38.402;-96.176;2023-04-10T00:21:55;98082.32;;;22.88;20.75
69689;BME280;56932;38.402;-96.176;2023-04-10T00:24:20;98085.88;;;22.92;21.19
69689;BME280;56932;38.402;-96.176;2023-04-10T00:26:46;98087.36;;;23.37;20.65
69689;BME280;56932;38.402;-96.176;2023-04-10T00:29:11;98087.52;;;23.53;20.87
69689;BME280;56932;38.402;-96.176;2023-04-10T00:31:37;98089.60;;;24.28;20.30
69689;BME280;56932;38.402;-96.176;2023-04-10T00:34:02;98083.83;;;22.98;21.88
69689;BME280;56932;38.402;-96.176;2023-04-10T00:36:28;98088.41;;;24.41;21.02
69689;BME280;56932;38.402;-96.176;2023-04-10T00:38:54;98085.71;;;23.00;21.77
69689;BME280;56932;38.402;-96.176;2023-04-10T00:41:19;98084.99;;;23.79;21.42
69689;BME280;56932;38.402;-96.176;2023-04-10T00:43:45;98084.32;;;24.25;20.96
69689;BME280;56932;38.402;-96.176;2023-04-10T00:46:10;98082.98;;;23.36;21.51
69689;BME280;56932;38.402;-96.176;2023-04-10T00:48:36;98086.04;;;24.54;20.78
69689;BME280;56932;38.402;-96.176;2023-04-10T00:51:01;98084.98;;;22.82;21.70
69689;BME280;56932;38.402;-96.176;2023-04-10T00:53:26;98081.06;;;23.46;21.37
69689;BME280;56932;38.402;-96.176;2023-04-10T00:55:52;98080.73;;;23.85;21.12
69689;BME280;56932;38.402;-96.176;2023-04-10T00:58:17;98084.45;;;23.79;21.49
69689;BME280;56932;38.402;-96.176;2023-04-10T01:00:43;98080.05;;;23.48;22.14
69689;BME280;56932;38.402;-96.176;2023-04-10T01:03:08;98085.76;;;23.85;21.43
69689;BME280;56932;38.402;-96.176;2023-04-10T01:05:41;98080.59;;;24.20;21.43
69689;BME280;56932;38.402;-96.176;2023-04-10T01:08:07;98081.40;;;23.28;21.23
69689;BME280;56932;38.402;-96.176;2023-04-10T01:10:31;98084.49;;;24.42;21.19
69689;BME280;56932;38.402;-96.176;2023-04-10T01:12:57;98083.27;;;23.26;21.41
69689;BME280;56932;38.402;-96.176;2023-04-10T01:15:17;98085.83;;;23.83;21.49
69689;BME280;56932;38.402;-96.176;2023-04-10T01:17:46;98090.81;;;24.16;21.20
69689;BME280;56932;38.402;-96.176;2023-04-10T01:20:11;98090.17;;;24.34;20.95
69689;BME280;56932;38.402;-96.176;2023-04-10T01:22:35;98100.58;;;24.09;21.27
69689;BME280;56932;38.402;-96.176;2023-04-10T01:27:35;98106.85;;;24.43;20.77
69689;BME280;56932;38.402;-96.176;2023-04-10T01:29:53;98104.71;;;23.58;21.35
69689;BME280;56932;38.402;-96.176;2023-04-10T01:32:16;98109.67;;;24.15;21.18
69689;BME280;56932;38.402;-96.176;2023-04-10T01:34:42;98116.62;;;24.57;21.09
69689;BME280;56932;38.402;-96.176;2023-04-10T01:37:07;98119.51;;;23.75;21.61
69689;BME280;56932;38.402;-96.176;2023-04-10T01:39:31;98121.64;;;24.76;21.25
69689;BME280;56932;38.402;-96.176;2023-04-10T01:41:56;98123.96;;;23.63;21.23
69689;BME280;56932;38.402;-96.176;2023-04-10T01:44:23;98122.44;;;24.15;21.61
69689;BME280;56932;38.402;-96.176;2023-04-10T01:46:48;98125.04;;;23.25;22.19
69689;BME280;56932;38.402;-96.176;2023-04-10T01:49:13;98124.00;;;23.74;21.96
69689;BME280;56932;38.402;-96.176;2023-04-10T01:51:37;98125.78;;;24.07;21.90
69689;BME280;56932;38.402;-96.176;2023-04-10T01:54:03;98127.33;;;23.88;21.73
69689;BME280;56932;38.402;-96.176;2023-04-10T01:56:28;98130.15;;;23.31;22.64
69689;BME280;56932;38.402;-96.176;2023-04-10T01:58:53;98135.23;;;23.31;21.90
69689;BME280;56932;38.402;-96.176;2023-04-10T02:01:19;98138.95;;;23.73;22.12
69689;BME280;56932;38.402;-96.176;2023-04-10T02:03:45;98142.06;;;24.06;22.04
69689;BME280;56932;38.402;-96.176;2023-04-10T02:06:15;98147.90;;;23.93;21.89
69689;BME280;56932;38.402;-96.176;2023-04-10T02:08:41;98147.57;;;23.89;22.18
69689;BME280;56932;38.402;-96.176;2023-04-10T02:11:14;98150.14;;;23.54;22.31
69689;BME280;56932;38.402;-96.176;2023-04-10T02:13:27;98153.94;;;23.47;22.76
69689;BME280;56932;38.402;-96.176;2023-04-10T02:15:55;98157.41;;;23.34;22.54
69689;BME280;56932;38.402;-96.176;2023-04-10T02:18:18;98157.47;;;22.83;23.36
69689;BME280;56932;38.402;-96.176;2023-04-10T02:20:43;98160.92;;;23.41;22.88
69689;BME280;56932;38.402;-96.176;2023-04-10T02:23:08;98161.56;;;23.17;22.91
69689;BME280;56932;38.402;-96.176;2023-04-10T02:25:33;98163.36;;;23.40;22.88
69689;BME280;56932;38.402;-96.176;2023-04-10T02:28:03;98171.76;;;22.48;23.33
69689;BME280;56932;38.402;-96.176;2023-04-10T02:30:24;98174.77;;;23.78;22.61
69689;BME280;56932;38.402;-96.176;2023-04-10T02:32:50;98179.97;;;22.85;22.79
69689;BME280;56932;38.402;-96.176;2023-04-10T02:35:15;98185.82;;;22.96;23.59
69689;BME280;56932;38.402;-96.176;2023-04-10T02:37:41;98190.14;;;23.81;22.83
69689;BME280;56932;38.402;-96.176;2023-04-10T02:40:07;98188.84;;;23.16;23.04
69689;BME280;56932;38.402;-96.176;2023-04-10T02:42:32;98188.41;;;22.94;23.84
69689;BME280;56932;38.402;-96.176;2023-04-10T02:44:57;98192.50;;;22.20;24.11
69689;BME280;56932;38.402;-96.176;2023-04-10T02:47:23;98193.34;;;22.87;23.92
69689;BME280;56932;38.402;-96.176;2023-04-10T02:49:48;98197.06;;;22.32;23.78
69689;BME280;56932;38.402;-96.176;2023-04-10T02:52:14;98196.28;;;22.46;23.80
69689;BME280;56932;38.402;-96.176;2023-04-10T02:54:39;98198.48;;;22.90;23.61
69689;BME280;56932;38.402;-96.176;2023-04-10T02:57:05;98195.39;;;22.34;23.82
69689;BME280;56932;38.402;-96.176;2023-04-10T02:59:30;98197.80;;;22.71;23.91
69689;BME280;56932;38.402;-96.176;2023-04-10T03:01:56;98201.62;;;21.78;24.34
69689;BME280;56932;38.402;-96.176;2023-04-10T03:04:21;98200.15;;;23.18;23.31
69689;BME280;56932;38.402;-96.176;2023-04-10T03:06:47;98206.63;;;21.81;24.34
69689;BME280;56932;38.402;-96.176;2023-04-10T03:09:12;98210.44;;;22.63;23.88
69689;BME280;56932;38.402;-96.176;2023-04-10T03:11:38;98213.42;;;22.97;23.80
69689;BME280;56932;38.402;-96.176;2023-04-10T03:14:04;98219.12;;;22.30;23.92
69689;BME280;56932;38.402;-96.176;2023-04-10T03:16:29;98215.15;;;22.45;23.80
69689;BME280;56932;38.402;-96.176;2023-04-10T03:18:55;98219.48;;;22.45;23.84
69689;BME280;56932;38.402;-96.176;2023-04-10T03:21:20;98223.74;;;22.67;23.91
69689;BME280;56932;38.402;-96.176;2023-04-10T03:23:46;98228.60;;;22.81;23.53
69689;BME280;56932;38.402;-96.176;2023-04-10T03:26:11;98233.06;;;22.92;23.41
69689;BME280;56932;38.402;-96.176;2023-04-10T03:28:36;98235.18;;;22.81;23.97
69689;BME280;56932;38.402;-96.176;2023-04-10T03:31:01;98229.93;;;22.18;24.12
69689;BME280;56932;38.402;-96.176;2023-04-10T03:33:27;98229.01;;;23.16;23.65
69689;BME280;56932;38.402;-96.176;2023-04-10T03:35:52;98231.27;;;22.72;23.66
69689;BME280;56932;38.402;-96.176;2023-04-10T03:38:18;98233.94;;;23.10;23.76
69689;BME280;56932;38.402;-96.176;2023-04-10T03:40:44;98234.37;;;23.33;23.57
69689;BME280;56932;38.402;-96.176;2023-04-10T03:43:09;98232.78;;;21.98;24.81
69689;BME280;56932;38.402;-96.176;2023-04-10T03:45:34;98233.02;;;22.17;24.49
69689;BME280;56932;38.402;-96.176;2023-04-10T03:48:00;98232.16;;;22.67;23.80
69689;BME280;56932;38.402;-96.176;2023-04-10T03:50:25;98232.22;;;22.55;23.91
69689;BME280;56932;38.402;-96.176;2023-04-10T03:52:51;98232.91;;;22.03;24.34
69689;BME280;56932;38.402;-96.176;2023-04-10T03:55:16;98234.71;;;22.33;24.09
69689;BME280;56932;38.402;-96.176;2023-04-10T03:57:41;98236.53;;;22.03;24.80
69689;BME280;56932;38.402;-96.176;2023-04-10T04:00:08;98234.28;;;21.79;24.80
69689;BME280;56932;38.402;-96.176;2023-04-10T04:02:33;98231.82;;;22.57;24.31
69689;BME280;56932;38.402;-96.176;2023-04-10T04:04:58;98230.13;;;21.74;25.01
69689;BME280;56932;38.402;-96.176;2023-04-10T04:07:24;98228.72;;;22.69;23.93
69689;BME280;56932;38.402;-96.176;2023-04-10T04:09:50;98227.90;;;22.42;23.89
69689;BME280;56932;38.402;-96.176;2023-04-10T04:12:15;98225.32;;;21.62;24.80
69689;BME280;56932;38.402;-96.176;2023-04-10T04:14:40;98224.35;;;22.94;23.72
69689;BME280;56932;38.402;-96.176;2023-04-10T04:17:05;98230.50;;;22.37;23.85
69689;BME280;56932;38.402;-96.176;2023-04-10T04:19:31;98234.19;;;22.64;23.79
69689;BME280;56932;38.402;-96.176;2023-04-10T04:21:57;98237.09;;;21.78;23.94
69689;BME280;56932;38.402;-96.176;2023-04-10T04:24:22;98235.42;;;22.77;23.86
69689;BME280;56932;38.402;-96.176;2023-04-10T04:26:48;98233.85;;;21.73;24.07
69689;BME280;56932;38.402;-96.176;2023-04-10T04:29:13;98236.69;;;21.54;24.73
69689;BME280;56932;38.402;-96.176;2023-04-10T04:31:38;98243.00;;;22.91;23.61
69689;BME280;56932;38.402;-96.176;2023-04-10T04:34:04;98245.95;;;21.31;24.65
69689;BME280;56932;38.402;-96.176;2023-04-10T04:36:29;98246.97;;;22.21;24.08
69689;BME280;56932;38.402;-96.176;2023-04-10T04:38:55;98249.99;;;21.49;24.07
69689;BME280;56932;38.402;-96.176;2023-04-10T04:41:20;98249.95;;;22.22;24.26
69689;BME280;56932;38.402;-96.176;2023-04-10T04:43:46;98244.94;;;21.19;24.72
69689;BME280;56932;38.402;-96.176;2023-04-10T04:46:11;98248.60;;;22.09;24.30
69689;BME280;56932;38.402;-96.176;2023-04-10T04:48:37;98243.46;;;22.41;24.01
69689;BME280;56932;38.402;-96.176;2023-04-10T04:51:02;98246.61;;;21.73;24.18
69689;BME280;56932;38.402;-96.176;2023-04-10T04:53:28;98246.09;;;22.60;23.84
69689;BME280;56932;38.402;-96.176;2023-04-10T04:55:54;98249.11;;;21.87;23.75
69689;BME280;56932;38.402;-96.176;2023-04-10T04:58:19;98251.26;;;22.24;24.13
69689;BME280;56932;38.402;-96.176;2023-04-10T05:00:45;98247.71;;;21.70;24.38
69689;BME280;56932;38.402;-96.176;2023-04-10T05:03:10;98252.32;;;22.33;23.52
69689;BME280;56932;38.402;-96.176;2023-04-10T05:05:36;98257.55;;;22.73;23.62
69689;BME280;56932;38.402;-96.176;2023-04-10T05:08:01;98258.27;;;22.73;23.20
69689;BME280;56932;38.402;-96.176;2023-04-10T05:10:27;98259.07;;;21.19;25.00
69689;BME280;56932;38.402;-96.176;2023-04-10T05:12:53;98257.71;;;20.91;24.79
69689;BME280;56932;38.402;-96.176;2023-04-10T05:15:18;98256.77;;;21.89;24.35
69689;BME280;56932;38.402;-96.176;2023-04-10T05:17:44;98259.31;;;22.39;23.93
69689;BME280;56932;38.402;-96.176;2023-04-10T05:20:10;98259.41;;;21.53;24.23
69689;BME280;56932;38.402;-96.176;2023-04-10T05:22:34;98260.89;;;22.51;23.72
69689;BME280;56932;38.402;-96.176;2023-04-10T05:25:00;98264.89;;;21.96;24.07
69689;BME280;56932;38.402;-96.176;2023-04-10T05:27:26;98264.65;;;22.34;23.93
69689;BME280;56932;38.402;-96.176;2023-04-10T05:29:52;98260.00;;;21.88;23.67
69689;BME280;56932;38.402;-96.176;2023-04-10T05:32:16;98259.83;;;20.69;25.47
69689;BME280;56932;38.402;-96.176;2023-04-10T05:34:42;98262.71;;;21.90;24.36
69689;BME280;56932;38.402;-96.176;2023-04-10T05:37:08;98262.98;;;21.27;24.70
69689;BME280;56932;38.402;-96.176;2023-04-10T05:39:33;98266.09;;;22.54;24.00
69689;BME280;56932;38.402;-96.176;2023-04-10T05:41:59;98262.33;;;20.90;24.81
69689;BME280;56932;38.402;-96.176;2023-04-10T05:44:24;98257.99;;;21.11;25.00
69689;BME280;56932;38.402;-96.176;2023-04-10T05:46:50;98263.00;;;21.39;24.36
69689;BME280;56932;38.402;-96.176;2023-04-10T05:49:15;98262.70;;;21.95;24.29
69689;BME280;56932;38.402;-96.176;2023-04-10T05:51:41;98265.28;;;21.78;24.51
69689;BME280;56932;38.402;-96.176;2023-04-10T05:54:06;98268.65;;;22.06;24.04
69689;BME280;56932;38.402;-96.176;2023-04-10T05:56:32;98269.49;;;22.45;24.15
69689;BME280;56932;38.402;-96.176;2023-04-10T05:58:57;98267.74;;;21.61;24.19
69689;BME280;56932;38.402;-96.176;2023-04-10T06:01:23;98267.93;;;21.82;24.45
69689;BME280;56932;38.402;-96.176;2023-04-10T06:03:49;98267.91;;;21.99;23.83
69689;BME280;56932;38.402;-96.176;2023-04-10T06:06:14;98270.38;;;21.21;24.14
69689;BME280;56932;38.402;-96.176;2023-04-10T06:08:39;98267.74;;;22.57;23.75
69689;BME280;56932;38.402;-96.176;2023-04-10T06:11:05;98270.88;;;21.74;24.02
69689;BME280;56932;38.402;-96.176;2023-04-10T06:13:30;98269.36;;;22.27;24.01
69689;BME280;56932;38.402;-96.176;2023-04-10T06:15:56;98272.09;;;21.41;24.16
69689;BME280;56932;38.402;-96.176;2023-04-10T06:18:21;98269.97;;;22.06;24.02
69689;BME280;56932;38.402;-96.176;2023-04-10T06:20:47;98272.58;;;21.97;24.11
69689;BME280;56932;38.402;-96.176;2023-04-10T06:23:12;98269.11;;;21.10;24.62
69689;BME280;56932;38.402;-96.176;2023-04-10T06:25:37;98268.87;;;22.12;23.85
69689;BME280;56932;38.402;-96.176;2023-04-10T06:28:03;98269.24;;;21.56;24.12
69689;BME280;56932;38.402;-96.176;2023-04-10T06:30:28;98267.72;;;21.35;24.72
69689;BME280;56932;38.402;-96.176;2023-04-10T06:32:55;98265.42;;;21.36;24.29
69689;BME280;56932;38.402;-96.176;2023-04-10T06:35:20;98268.05;;;22.17;23.98
69689;BME280;56932;38.402;-96.176;2023-04-10T06:37:45;98260.16;;;21.86;24.22
69689;BME280;56932;38.402;-96.176;2023-04-10T06:40:12;98258.52;;;22.66;23.47
69689;BME280;56932;38.402;-96.176;2023-04-10T06:42:36;98254.40;;;21.85;24.19
69689;BME280;56932;38.402;-96.176;2023-04-10T06:45:03;98253.55;;;21.52;24.07
69689;BME280;56932;38.402;-96.176;2023-04-10T06:47:27;98251.23;;;21.67;24.41
69689;BME280;56932;38.402;-96.176;2023-04-10T06:49:53;98248.43;;;21.07;24.06
69689;BME280;56932;38.402;-96.176;2023-04-10T06:52:18;98249.11;;;21.51;24.45
69689;BME280;56932;38.402;-96.176;2023-04-10T06:54:44;98250.03;;;22.13;23.94
69689;BME280;56932;38.402;-96.176;2023-04-10T06:57:09;98253.15;;;22.04;23.78
69689;BME280;56932;38.402;-96.176;2023-04-10T06:59:35;98252.46;;;21.54;24.42
69689;BME280;56932;38.402;-96.176;2023-04-10T07:02:01;98257.70;;;20.64;24.42
69689;BME280;56932;38.402;-96.176;2023-04-10T07:04:26;98260.29;;;22.36;23.93
69689;BME280;56932;38.402;-96.176;2023-04-10T07:06:52;98257.70;;;20.92;24.51
69689;BME280;56932;38.402;-96.176;2023-04-10T07:09:17;98256.59;;;21.79;23.98
69689;BME280;56932;38.402;-96.176;2023-04-10T07:11:43;98256.49;;;22.06;23.95
69689;BME280;56932;38.402;-96.176;2023-04-10T07:14:08;98251.95;;;21.53;24.24
69689;BME280;56932;38.402;-96.176;2023-04-10T07:16:33;98257.05;;;22.18;24.10
69689;BME280;56932;38.402;-96.176;2023-04-10T07:18:59;98255.73;;;21.54;23.98
69689;BME280;56932;38.402;-96.176;2023-04-10T07:21:24;98256.97;;;21.97;24.03
69689;BME280;56932;38.402;-96.176;2023-04-10T07:23:50;98255.67;;;21.70;24.06
69689;BME280;56932;38.402;-96.176;2023-04-10T07:26:15;98259.79;;;22.34;23.68
69689;BME280;56932;38.402;-96.176;2023-04-10T07:28:41;98257.92;;;21.92;24.03
69689;BME280;56932;38.402;-96.176;2023-04-10T07:31:07;98263.68;;;22.25;23.72
69689;BME280;56932;38.402;-96.176;2023-04-10T07:33:32;98269.71;;;22.23;23.79
69689;BME280;56932;38.402;-96.176;2023-04-10T07:35:57;98265.63;;;20.66;24.72
69689;BME280;56932;38.402;-96.176;2023-04-10T07:38:23;98270.39;;;22.13;23.83
69689;BME280;56932;38.402;-96.176;2023-04-10T07:40:49;98264.16;;;21.48;23.98
69689;BME280;56932;38.402;-96.176;2023-04-10T07:43:14;98260.43;;;21.10;24.99
69689;BME280;56932;38.402;-96.176;2023-04-10T07:45:40;98262.77;;;22.06;23.89
69689;BME280;56932;38.402;-96.176;2023-04-10T07:48:05;98259.02;;;21.54;24.46
69689;BME280;56932;38.402;-96.176;2023-04-10T07:50:30;98257.64;;;21.98;24.25
69689;BME280;56932;38.402;-96.176;2023-04-10T07:52:56;98258.68;;;21.54;23.98
69689;BME280;56932;38.402;-96.176;2023-04-10T07:55:22;98260.39;;;21.56;24.36
69689;BME280;56932;38.402;-96.176;2023-04-10T07:57:48;98257.53;;;20.96;24.75
69689;BME280;56932;38.402;-96.176;2023-04-10T08:00:13;98258.43;;;20.55;25.31
69689;BME280;56932;38.402;-96.176;2023-04-10T08:02:38;98261.52;;;21.05;25.40
69689;BME280;56932;38.402;-96.176;2023-04-10T08:05:04;98259.88;;;21.37;24.45
69689;BME280;56932;38.402;-96.176;2023-04-10T08:07:29;98252.42;;;22.07;24.26
69689;BME280;56932;38.402;-96.176;2023-04-10T08:09:55;98252.70;;;20.96;24.60
69689;BME280;56932;38.402;-96.176;2023-04-10T08:12:20;98253.20;;;21.72;24.36
69689;BME280;56932;38.402;-96.176;2023-04-10T08:14:46;98251.12;;;21.79;24.23
69689;BME280;56932;38.402;-96.176;2023-04-10T08:17:11;98252.64;;;21.61;24.19
69689;BME280;56932;38.402;-96.176;2023-04-10T08:19:37;98251.49;;;20.92;24.96
69689;BME280;56932;38.402;-96.176;2023-04-10T08:22:02;98258.72;;;21.12;24.66
69689;BME280;56932;38.402;-96.176;2023-04-10T08:24:28;98260.76;;;21.52;24.72
69689;BME280;56932;38.402;-96.176;2023-04-10T08:26:54;98262.77;;;20.95;24.57
69689;BME280;56932;38.402;-96.176;2023-04-10T08:29:19;98260.09;;;21.48;24.51
69689;BME280;56932;38.402;-96.176;2023-04-10T08:31:45;98255.03;;;22.01;24.24
69689;BME280;56932;38.402;-96.176;2023-04-10T08:34:10;98252.12;;;21.30;24.68
69689;BME280;56932;38.402;-96.176;2023-04-10T08:36:35;98249.73;;;21.32;24.63
69689;BME280;56932;38.402;-96.176;2023-04-10T08:39:01;98250.88;;;20.93;24.55
69689;BME280;56932;38.402;-96.176;2023-04-10T08:41:26;98250.02;;;20.95;24.92
69689;BME280;56932;38.402;-96.176;2023-04-10T08:43:52;98253.62;;;20.70;24.70
69689;BME280;56932;38.402;-96.176;2023-04-10T08:46:17;98258.82;;;21.58;24.30
69689;BME280;56932;38.402;-96.176;2023-04-10T08:48:47;98260.55;;;21.51;24.38
69689;BME280;56932;38.402;-96.176;2023-04-10T08:51:14;98259.89;;;21.51;24.17
69689;BME280;56932;38.402;-96.176;2023-04-10T08:53:38;98267.46;;;21.91;24.46
69689;BME280;56932;38.402;-96.176;2023-04-10T08:56:02;98268.14;;;20.49;24.79
69689;BME280;56932;38.402;-96.176;2023-04-10T08:58:25;98270.57;;;21.57;24.29
69689;BME280;56932;38.402;-96.176;2023-04-10T09:00:51;98260.97;;;20.46;24.86
69689;BME280;56932;38.402;-96.176;2023-04-10T09:03:16;98256.19;;;20.58;25.15
69689;BME280;56932;38.402;-96.176;2023-04-10T09:05:42;98253.79;;;21.53;24.74
69689;BME280;56932;38.402;-96.176;2023-04-10T09:08:07;98256.35;;;21.54;24.27
69689;BME280;56932;38.402;-96.176;2023-04-10T09:10:33;98253.06;;;21.59;24.49
69689;BME280;56932;38.402;-96.176;2023-04-10T09:12:58;98254.47;;;20.94;24.38
69689;BME280;56932;38.402;-96.176;2023-04-10T09:15:24;98248.01;;;21.58;24.66
69689;BME280;56932;38.402;-96.176;2023-04-10T09:17:55;98248.46;;;20.51;25.24
69689;BME280;56932;38.402;-96.176;2023-04-10T09:20:20;98238.22;;;21.32;24.71
69689;BME280;56932;38.402;-96.176;2023-04-10T09:22:40;98237.53;;;21.17;25.05
69689;BME280;56932;38.402;-96.176;2023-04-10T09:25:27;98241.40;;;21.01;24.56
69689;BME280;56932;38.402;-96.176;2023-04-10T09:27:32;98242.07;;;21.41;24.39
69689;BME280;56932;38.402;-96.176;2023-04-10T09:29:57;98244.47;;;20.33;25.16
69689;BME280;56932;38.402;-96.176;2023-04-10T09:34:54;98242.43;;;21.02;24.75
69689;BME280;56932;38.402;-96.176;2023-04-10T09:37:13;98244.72;;;21.37;24.37
69689;BME280;56932;38.402;-96.176;2023-04-10T09:39:39;98240.09;;;21.14;24.80
69689;BME280;56932;38.402;-96.176;2023-04-10T09:42:05;98242.29;;;21.15;24.56
69689;BME280;56932;38.402;-96.176;2023-04-10T09:44:33;98248.27;;;20.76;25.39
69689;BME280;56932;38.402;-96.176;2023-04-10T09:46:56;98237.48;;;20.85;24.65
69689;BME280;56932;38.402;-96.176;2023-04-10T09:49:21;98239.37;;;21.24;24.71
69689;BME280;56932;38.402;-96.176;2023-04-10T09:51:47;98232.36;;;20.66;25.00
69689;BME280;56932;38.402;-96.176;2023-04-10T09:54:12;98232.72;;;20.89;24.79
69689;BME280;56932;38.402;-96.176;2023-04-10T09:56:38;98231.82;;;21.75;24.43
69689;BME280;56932;38.402;-96.176;2023-04-10T09:59:05;98228.86;;;20.83;24.82
69689;BME280;56932;38.402;-96.176;2023-04-10T10:01:30;98232.14;;;21.53;24.61
69689;BME280;56932;38.402;-96.176;2023-04-10T10:03:55;98229.88;;;20.66;24.71
69689;BME280;56932;38.402;-96.176;2023-04-10T10:06:20;98234.68;;;21.07;25.03
69689;BME280;56932;38.402;-96.176;2023-04-10T10:08:46;98242.77;;;21.25;24.40
69689;BME280;56932;38.402;-96.176;2023-04-10T10:11:13;98237.02;;;21.06;24.59
69689;BME280;56932;38.402;-96.176;2023-04-10T10:13:44;98239.67;;;21.62;24.32
69689;BME280;56932;38.402;-96.176;2023-04-10T10:16:07;98239.96;;;20.96;24.46
69689;BME280;56932;38.402;-96.176;2023-04-10T10:18:34;98235.56;;;21.42;24.70
69689;BME280;56932;38.402;-96.176;2023-04-10T10:20:54;98234.20;;;20.68;24.89
69689;BME280;56932;38.402;-96.176;2023-04-10T10:23:19;98235.04;;;20.81;24.97
69689;BME280;56932;38.402;-96.176;2023-04-10T10:25:45;98239.82;;;21.69;24.38
69689;BME280;56932;38.402;-96.176;2023-04-10T10:28:12;98244.75;;;21.31;24.28
69689;BME280;56932;38.402;-96.176;2023-04-10T10:30:37;98242.21;;;21.56;24.49
69689;BME280;56932;38.402;-96.176;2023-04-10T10:33:04;98244.14;;;21.37;24.03
69689;BME280;56932;38.402;-96.176;2023-04-10T10:35:27;98247.58;;;21.69;24.15
69689;BME280;56932;38.402;-96.176;2023-04-10T10:37:52;98247.60;;;21.05;24.28
69689;BME280;56932;38.402;-96.176;2023-04-10T10:40:21;98249.43;;;21.57;24.24
69689;BME280;56932;38.402;-96.176;2023-04-10T10:42:49;98248.35;;;21.26;24.79
69689;BME280;56932;38.402;-96.176;2023-04-10T10:45:12;98249.90;;;21.19;24.38
69689;BME280;56932;38.402;-96.176;2023-04-10T10:47:39;98249.05;;;21.68;24.35
69689;BME280;56932;38.402;-96.176;2023-04-10T10:50:01;98247.64;;;20.33;24.73
69689;BME280;56932;38.402;-96.176;2023-04-10T10:54:51;98250.91;;;20.24;24.82
69689;BME280;56932;38.402;-96.176;2023-04-10T11:02:14;98250.08;;;21.16;24.36
69689;BME280;56932;38.402;-96.176;2023-04-10T11:04:41;98257.25;;;21.66;24.13
69689;BME280;56932;38.402;-96.176;2023-04-10T11:06:58;98253.99;;;20.70;24.79
69689;BME280;56932;38.402;-96.176;2023-04-10T11:11:56;98256.42;;;20.24;25.26
69689;BME280;56932;38.402;-96.176;2023-04-10T11:14:16;98256.58;;;21.35;24.67
69689;BME280;56932;38.402;-96.176;2023-04-10T11:16:43;98260.76;;;21.36;24.64
69689;BME280;56932;38.402;-96.176;2023-04-10T11:19:07;98261.45;;;21.03;24.74
69689;BME280;56932;38.402;-96.176;2023-04-10T11:21:32;98271.88;;;21.06;24.92
69689;BME280;56932;38.402;-96.176;2023-04-10T11:24:03;98276.18;;;19.96;25.08
69689;BME280;56932;38.402;-96.176;2023-04-10T11:28:49;98278.53;;;20.91;24.66
69689;BME280;56932;38.402;-96.176;2023-04-10T11:31:16;98281.62;;;20.19;25.29
69689;BME280;56932;38.402;-96.176;2023-04-10T11:33:40;98288.89;;;21.12;24.72
69689;BME280;56932;38.402;-96.176;2023-04-10T11:36:06;98289.05;;;20.61;24.94
69689;BME280;56932;38.402;-96.176;2023-04-10T11:38:31;98291.80;;;21.06;24.73
69689;BME280;56932;38.402;-96.176;2023-04-10T11:40:59;98288.12;;;20.67;24.41
69689;BME280;56932;38.402;-96.176;2023-04-10T11:43:22;98295.19;;;21.14;24.85
69689;BME280;56932;38.402;-96.176;2023-04-10T11:45:48;98299.22;;;20.62;24.91
69689;BME280;56932;38.402;-96.176;2023-04-10T11:48:14;98297.70;;;21.41;24.43
69689;BME280;56932;38.402;-96.176;2023-04-10T11:50:38;98302.73;;;21.60;24.40
69689;BME280;56932;38.402;-96.176;2023-04-10T11:55:35;98306.22;;;21.39;24.38
69689;BME280;56932;38.402;-96.176;2023-04-10T11:57:55;98308.31;;;20.26;24.70
69689;BME280;56932;38.402;-96.176;2023-04-10T12:00:22;98307.15;;;21.55;24.42
69689;BME280;56932;38.402;-96.176;2023-04-10T12:02:51;98306.99;;;20.70;24.77
69689;BME280;56932;38.402;-96.176;2023-04-10T12:05:11;98308.75;;;21.11;24.61
69689;BME280;56932;38.402;-96.176;2023-04-10T12:07:37;98308.27;;;21.14;24.78
69689;BME280;56932;38.402;-96.176;2023-04-10T12:10:03;98311.89;;;20.80;24.64
69689;BME280;56932;38.402;-96.176;2023-04-10T12:12:33;98311.54;;;21.69;24.26
69689;BME280;56932;38.402;-96.176;2023-04-10T12:14:54;98311.27;;;20.77;24.42
69689;BME280;56932;38.402;-96.176;2023-04-10T12:17:19;98313.69;;;20.80;25.03
69689;BME280;56932;38.402;-96.176;2023-04-10T12:19:45;98317.37;;;21.32;24.56
69689;BME280;56932;38.402;-96.176;2023-04-10T12:22:12;98317.63;;;21.18;24.47
69689;BME280;56932;38.402;-96.176;2023-04-10T12:24:40;98317.71;;;21.74;24.20
69689;BME280;56932;38.402;-96.176;2023-04-10T12:27:01;98320.53;;;20.54;24.79
69689;BME280;56932;38.402;-96.176;2023-04-10T12:29:26;98322.71;;;20.96;24.88
69689;BME280;56932;38.402;-96.176;2023-04-10T12:31:52;98321.90;;;20.46;24.64
69689;BME280;56932;38.402;-96.176;2023-04-10T12:34:18;98322.22;;;20.79;25.00
69689;BME280;56932;38.402;-96.176;2023-04-10T12:36:51;98318.92;;;21.39;24.42
69689;BME280;56932;38.402;-96.176;2023-04-10T12:41:35;98316.13;;;20.84;24.88
69689;BME280;56932;38.402;-96.176;2023-04-10T12:44:07;98315.59;;;20.74;24.51
69689;BME280;56932;38.402;-96.176;2023-04-10T12:46:26;98313.05;;;21.19;24.55
69689;BME280;56932;38.402;-96.176;2023-04-10T12:48:51;98310.18;;;20.64;24.55
69689;BME280;56932;38.402;-96.176;2023-04-10T12:51:16;98313.02;;;21.17;24.31